Time;durP1;ratioP1;P1;durP2;ratioP2;P2;SDS_P1;SDS_P2;PMS_P1;PMS_P2;Temp;Humidity;BMP_temperature;BMP_pressure;BME280_temperature;BME280_humidity;BME280_pressure;Samples;Min_cycle;Max_cycle;Signal;HPM_P1;HPM_P2
2021/06/06 00:01:40;;;;;;;12.02;6.93;;;17.00;99.90;;;;;;4876642;29;20048;-87
2021/06/06 00:04:14;;;;;;;9.75;4.05;;;17.00;99.90;;;;;;4892592;29;20053;-84
2021/06/06 00:06:48;;;;;;;10.18;5.05;;;16.90;99.90;;;;;;4892703;29;20692;-88
2021/06/06 00:09:21;;;;;;;10.52;4.53;;;16.90;99.90;;;;;;4884235;29;20427;-85
2021/06/06 00:11:54;;;;;;;22.75;6.50;;;16.90;99.90;;;;;;4889732;29;20048;-84
2021/06/06 00:14:29;;;;;;;10.82;4.68;;;16.90;99.90;;;;;;4896832;29;20059;-84
2021/06/06 00:17:00;;;;;;;15.80;5.97;;;16.90;99.90;;;;;;4902332;29;20063;-86
2021/06/06 00:19:29;;;;;;;;;;;16.90;99.90;;;;;;4895235;29;20056;-85
2021/06/06 00:21:58;;;;;;;13.40;5.40;;;17.00;99.90;;;;;;4904518;29;19927;-85
2021/06/06 00:24:30;;;;;;;14.40;5.82;;;16.90;99.90;;;;;;4905165;29;20060;-82
2021/06/06 00:26:58;;;;;;;11.18;4.75;;;16.80;99.90;;;;;;4901233;29;20059;-84
2021/06/06 00:29:26;;;;;;;10.70;4.43;;;16.90;99.90;;;;;;4901536;29;20056;-84
2021/06/06 00:31:55;;;;;;;10.18;5.45;;;16.70;99.90;;;;;;4899194;29;20056;-83
2021/06/06 00:34:23;;;;;;;13.02;4.07;;;16.90;99.90;;;;;;4897174;29;20063;-84
2021/06/06 00:36:52;;;;;;;22.35;5.88;;;16.90;99.90;;;;;;4878232;29;20063;-83
2021/06/06 00:39:22;;;;;;;13.90;5.32;;;16.80;99.90;;;;;;4875352;29;20052;-86
2021/06/06 00:41:51;;;;;;;12.25;5.30;;;16.80;99.90;;;;;;4877592;29;20446;-83
2021/06/06 00:44:23;;;;;;;7.18;4.47;;;16.70;99.90;;;;;;4877565;29;20052;-84
2021/06/06 00:46:54;;;;;;;13.60;4.85;;;16.70;99.90;;;;;;4867296;29;20049;-83
2021/06/06 00:49:23;;;;;;;17.98;6.15;;;16.60;99.90;;;;;;4891642;29;20064;-85
2021/06/06 00:51:55;;;;;;;12.95;4.78;;;17.10;99.90;;;;;;4858327;29;20488;-84
2021/06/06 00:54:44;;;;;;;12.93;5.22;;;16.60;99.90;;;;;;4872167;29;20417;-86
2021/06/06 00:57:26;;;;;;;16.08;5.07;;;16.90;99.90;;;;;;4873285;29;20057;-84
2021/06/06 01:00:21;;;;;;;13.50;5.28;;;16.60;99.90;;;;;;4889996;29;20048;-83
2021/06/06 01:02:51;;;;;;;11.32;6.28;;;16.60;99.90;;;;;;4891537;29;20368;-84
2021/06/06 01:05:36;;;;;;;14.68;5.68;;;16.60;99.90;;;;;;4878628;29;20404;-85
2021/06/06 01:08:11;;;;;;;11.38;4.63;;;16.10;99.90;;;;;;4884713;29;20052;-85
2021/06/06 01:10:45;;;;;;;13.73;5.88;;;16.60;99.90;;;;;;4892067;29;20481;-85
2021/06/06 01:13:27;;;;;;;10.05;4.38;;;16.60;99.90;;;;;;4876173;29;20071;-83
2021/06/06 01:16:06;;;;;;;12.27;5.07;;;16.60;99.90;;;;;;4875829;29;20057;-84
2021/06/06 01:18:41;;;;;;;13.38;4.65;;;16.60;99.90;;;;;;4890536;29;20048;-85
2021/06/06 01:21:31;;;;;;;16.35;5.03;;;16.60;99.90;;;;;;4891936;29;20053;-84
2021/06/06 01:24:31;;;;;;;12.32;4.80;;;16.60;99.90;;;;;;4874563;29;20064;-83
2021/06/06 01:27:14;;;;;;;12.77;6.05;;;16.60;99.90;;;;;;4879327;29;20497;-83
2021/06/06 01:30:14;;;;;;;16.40;5.80;;;16.50;99.90;;;;;;4876341;29;20049;-85
2021/06/06 01:32:49;;;;;;;11.07;5.90;;;16.50;99.90;;;;;;4860180;29;20049;-85
2021/06/06 01:35:26;;;;;;;12.05;5.07;;;16.40;99.90;;;;;;4885842;29;20095;-83
2021/06/06 01:38:02;;;;;;;15.65;4.85;;;16.40;99.90;;;;;;4878468;29;20056;-84
2021/06/06 01:40:34;;;;;;;11.70;4.95;;;16.40;99.90;;;;;;4900466;29;20376;-84
2021/06/06 01:43:07;;;;;;;13.70;5.55;;;16.40;99.90;;;;;;4872358;29;20507;-84
2021/06/06 01:45:51;;;;;;;15.63;5.43;;;16.40;99.90;;;;;;4884016;29;20056;-84
2021/06/06 01:48:20;;;;;;;17.83;6.53;;;16.30;99.90;;;;;;4889781;29;20071;-84
2021/06/06 01:50:59;;;;;;;12.65;5.43;;;16.30;99.90;;;;;;4879975;29;20052;-85
2021/06/06 01:53:28;;;;;;;10.68;5.25;;;16.30;99.90;;;;;;4898307;29;20504;-85
2021/06/06 01:56:01;;;;;;;10.98;5.15;;;16.30;99.90;;;;;;4879706;29;20060;-84
2021/06/06 01:58:38;;;;;;;17.17;6.22;;;16.30;99.90;;;;;;4881768;29;20052;-84
2021/06/06 02:01:16;;;;;;;12.57;5.00;;;16.20;99.90;;;;;;4880386;29;20063;-84
2021/06/06 02:03:50;;;;;;;7.72;4.35;;;16.20;99.90;;;;;;4893351;29;20053;-85
2021/06/06 02:06:29;;;;;;;13.30;5.32;;;16.20;99.90;;;;;;4895802;29;20052;-85
2021/06/06 02:08:59;;;;;;;13.98;5.32;;;16.20;99.90;;;;;;4867090;29;20652;-85
2021/06/06 02:11:40;;;;;;;15.27;6.07;;;16.10;99.90;;;;;;4875571;29;20442;-85
2021/06/06 02:14:16;;;;;;;13.25;5.80;;;16.10;99.90;;;;;;4848536;29;20147;-86
2021/06/06 02:16:48;;;;;;;22.75;5.85;;;16.00;99.90;;;;;;4889261;29;20057;-86
2021/06/06 02:19:31;;;;;;;9.55;6.40;;;16.00;99.90;;;;;;4870500;29;20055;-87
2021/06/06 02:22:12;;;;;;;13.05;4.90;;;16.00;99.90;;;;;;4898076;29;20052;-85
2021/06/06 02:24:42;;;;;;;11.00;4.70;;;15.90;99.90;;;;;;4894321;29;20072;-85
2021/06/06 02:27:24;;;;;;;9.95;5.22;;;15.90;99.90;;;;;;4880600;29;20052;-84
2021/06/06 02:30:04;;;;;;;13.02;6.32;;;15.90;99.90;;;;;;4895117;29;20053;-85
2021/06/06 02:32:44;;;;;;;16.95;5.70;;;15.80;99.90;;;;;;4892409;29;20053;-87
2021/06/06 02:35:32;;;;;;;9.43;4.72;;;15.80;99.90;;;;;;4900587;29;20056;-85
2021/06/06 02:38:15;;;;;;;10.80;5.18;;;15.90;99.90;;;;;;4895012;29;20045;-87
2021/06/06 02:41:03;;;;;;;12.35;5.07;;;15.80;99.90;;;;;;4876863;29;20053;-85
2021/06/06 02:44:01;;;;;;;11.57;4.97;;;15.80;99.90;;;;;;4873251;29;20517;-86
2021/06/06 02:46:34;;;;;;;14.10;5.45;;;15.70;99.90;;;;;;4898621;29;20063;-86
2021/06/06 02:49:10;;;;;;;;;;;15.80;99.90;;;;;;4881909;29;20520;-86
2021/06/06 02:51:49;;;;;;;9.63;4.88;;;15.80;99.90;;;;;;4897791;29;19951;-83
2021/06/06 02:54:29;;;;;;;11.45;5.03;;;15.80;99.90;;;;;;4880256;29;20063;-84
2021/06/06 02:57:06;;;;;;;14.90;5.88;;;15.50;99.90;;;;;;4863932;29;20064;-85
2021/06/06 02:59:53;;;;;;;11.27;5.30;;;15.80;99.90;;;;;;4896742;29;20053;-84
2021/06/06 03:02:26;;;;;;;10.32;4.65;;;15.80;99.90;;;;;;4897257;29;20060;-84
2021/06/06 03:04:59;;;;;;;13.00;5.35;;;15.80;99.90;;;;;;4895477;29;20505;-83
2021/06/06 03:07:46;;;;;;;11.05;5.10;;;15.90;99.90;;;;;;4876362;29;20414;-85
2021/06/06 03:10:19;;;;;;;16.85;6.15;;;15.80;99.90;;;;;;4877136;29;20057;-83
2021/06/06 03:12:51;;;;;;;11.85;5.53;;;15.80;99.90;;;;;;4903708;29;20044;-83
2021/06/06 03:15:21;;;;;;;10.93;4.88;;;15.80;99.90;;;;;;4897284;29;20049;-83
2021/06/06 03:17:53;;;;;;;13.00;5.30;;;15.80;99.90;;;;;;4879684;29;20079;-83
2021/06/06 03:20:30;;;;;;;11.68;5.25;;;15.30;99.90;;;;;;4904278;29;20076;-83
2021/06/06 03:23:02;;;;;;;14.63;5.55;;;15.70;99.90;;;;;;4891030;29;20060;-84
2021/06/06 03:25:51;;;;;;;12.18;5.55;;;15.70;99.90;;;;;;4876083;29;20059;-83
2021/06/06 03:28:31;;;;;;;9.15;5.35;;;15.60;99.90;;;;;;4894934;29;20401;-84
2021/06/06 03:31:11;;;;;;;16.63;4.70;;;15.60;99.90;;;;;;4875463;29;20057;-84
2021/06/06 03:34:08;;;;;;;12.32;6.50;;;15.60;99.90;;;;;;4892707;29;20624;-83
2021/06/06 03:36:45;;;;;;;10.98;5.00;;;15.50;99.90;;;;;;4879992;29;20071;-83
2021/06/06 03:39:28;;;;;;;13.50;5.20;;;15.50;99.90;;;;;;4897289;29;20063;-83
2021/06/06 03:42:01;;;;;;;19.55;6.20;;;15.80;99.90;;;;;;4877338;29;20148;-84
2021/06/06 03:44:30;;;;;;;16.67;4.85;;;15.40;99.90;;;;;;4874160;29;20053;-84
2021/06/06 03:46:59;;;;;;;15.48;6.53;;;15.40;99.90;;;;;;4890407;29;20076;-83
2021/06/06 03:49:27;;;;;;;7.70;5.38;;;15.40;99.90;;;;;;4894760;29;20044;-83
2021/06/06 03:51:55;;;;;;;14.18;5.32;;;15.40;99.90;;;;;;4877994;29;20060;-83
2021/06/06 03:54:25;;;;;;;14.40;5.93;;;15.40;99.90;;;;;;4877824;29;20052;-83
2021/06/06 03:56:53;;;;;;;12.02;5.53;;;15.40;99.90;;;;;;4849495;29;20044;-85
2021/06/06 03:59:24;;;;;;;;;;;15.40;99.90;;;;;;4898304;29;20064;-83
2021/06/06 04:01:54;;;;;;;15.30;5.80;;;15.40;99.90;;;;;;4895593;29;19923;-83
2021/06/06 04:04:24;;;;;;;13.90;5.50;;;15.40;99.90;;;;;;4877614;29;20049;-83
2021/06/06 04:06:53;;;;;;;10.52;5.25;;;15.60;99.90;;;;;;4874541;29;20057;-83
2021/06/06 04:09:22;;;;;;;16.23;5.57;;;15.50;99.90;;;;;;4885836;29;20060;-83
2021/06/06 04:11:51;;;;;;;11.57;5.20;;;15.50;99.90;;;;;;4879101;29;20068;-84
2021/06/06 04:14:19;;;;;;;13.15;5.78;;;15.50;99.90;;;;;;4893501;29;20056;-83
2021/06/06 04:16:58;;;;;;;15.23;5.43;;;15.50;99.90;;;;;;4859805;29;20064;-83
2021/06/06 04:19:30;;;;;;;15.32;5.70;;;15.50;99.90;;;;;;4900513;29;20140;-83
2021/06/06 04:21:58;;;;;;;16.48;6.00;;;15.60;99.90;;;;;;4878460;29;20053;-83
2021/06/06 04:24:27;;;;;;;17.40;6.50;;;15.60;99.90;;;;;;4861978;29;20060;-84
2021/06/06 04:26:58;;;;;;;11.68;5.45;;;15.60;99.90;;;;;;4877833;29;20385;-84
2021/06/06 04:29:28;;;;;;;10.98;5.05;;;15.70;99.90;;;;;;4894262;29;20070;-83
2021/06/06 04:32:04;;;;;;;16.63;6.15;;;15.70;99.90;;;;;;4879156;29;20056;-83
2021/06/06 04:34:36;;;;;;;18.73;6.13;;;15.70;99.90;;;;;;4878989;29;20057;-84
2021/06/06 04:37:04;;;;;;;13.13;6.53;;;15.70;99.90;;;;;;4888781;29;20594;-83
2021/06/06 04:39:33;;;;;;;7.05;4.35;;;15.70;99.90;;;;;;4892633;29;20049;-82
2021/06/06 04:42:04;;;;;;;12.15;5.30;;;15.80;99.90;;;;;;4893291;29;20064;-83
2021/06/06 04:44:33;;;;;;;15.18;5.78;;;15.90;99.90;;;;;;4873843;29;20068;-83
2021/06/06 04:47:03;;;;;;;12.63;5.63;;;15.90;99.90;;;;;;4888206;29;20596;-83
2021/06/06 04:49:31;;;;;;;12.88;5.75;;;16.00;99.90;;;;;;4880465;29;20115;-83
2021/06/06 04:52:03;;;;;;;10.57;5.33;;;16.00;99.90;;;;;;4873047;29;20646;-83
2021/06/06 04:54:40;;;;;;;11.38;4.20;;;16.10;99.90;;;;;;4885967;29;20056;-83
2021/06/06 04:57:09;;;;;;;20.02;5.88;;;16.10;99.90;;;;;;4880994;29;20059;-83
2021/06/06 04:59:38;;;;;;;14.52;5.63;;;16.20;99.90;;;;;;4865389;29;20060;-84
2021/06/06 05:02:11;;;;;;;10.95;4.72;;;16.20;99.90;;;;;;4890183;29;20063;-84
2021/06/06 05:04:45;;;;;;;15.20;6.00;;;16.30;99.90;;;;;;4901697;29;20044;-83
2021/06/06 05:07:13;;;;;;;12.75;4.78;;;16.40;99.90;;;;;;4872552;29;20056;-83
2021/06/06 05:09:43;;;;;;;12.48;6.00;;;16.40;99.90;;;;;;4887779;29;20045;-85
2021/06/06 05:12:13;;;;;;;9.57;4.95;;;16.50;99.90;;;;;;4889756;29;20053;-83
2021/06/06 05:14:41;;;;;;;13.98;5.45;;;16.50;99.90;;;;;;4883685;29;20229;-84
2021/06/06 05:17:10;;;;;;;12.27;5.00;;;16.50;99.90;;;;;;4878869;29;20057;-83
2021/06/06 05:19:58;;;;;;;10.48;4.90;;;16.70;99.90;;;;;;4903201;29;20063;-83
2021/06/06 05:22:26;;;;;;;13.02;6.45;;;16.70;99.90;;;;;;4891232;29;20498;-84
2021/06/06 05:24:53;;;;;;;9.68;5.22;;;16.80;99.90;;;;;;4887435;29;20052;-83
2021/06/06 05:27:25;;;;;;;14.48;5.88;;;16.90;99.90;;;;;;4875353;29;20055;-84
2021/06/06 05:29:53;;;;;;;13.95;5.20;;;17.10;99.90;;;;;;4874699;29;20060;-84
2021/06/06 05:32:21;;;;;;;19.77;4.55;;;17.00;99.90;;;;;;4890307;29;20061;-84
2021/06/06 05:34:49;;;;;;;10.57;5.00;;;17.10;99.90;;;;;;4875167;29;20056;-84
2021/06/06 05:37:17;;;;;;;11.75;5.25;;;17.10;99.90;;;;;;4887216;29;20082;-84
2021/06/06 05:39:45;;;;;;;10.52;5.35;;;17.20;99.90;;;;;;4875616;29;20405;-84
2021/06/06 05:42:13;;;;;;;9.02;4.78;;;17.30;99.90;;;;;;4895418;29;20056;-83
2021/06/06 05:44:41;;;;;;;11.45;5.25;;;17.20;99.90;;;;;;4874975;29;20061;-84
2021/06/06 05:47:09;;;;;;;17.02;4.80;;;17.40;99.90;;;;;;4891577;29;20059;-84
2021/06/06 05:49:36;;;;;;;12.85;5.03;;;17.30;99.90;;;;;;4893748;29;20061;-84
2021/06/06 05:52:10;;;;;;;11.00;4.93;;;17.40;99.90;;;;;;4871441;29;20677;-84
2021/06/06 05:54:38;;;;;;;13.98;6.47;;;17.40;99.90;;;;;;4872444;29;20055;-85
2021/06/06 05:57:06;;;;;;;13.95;5.38;;;17.50;99.90;;;;;;4895109;29;20118;-84
2021/06/06 05:59:34;;;;;;;8.15;4.53;;;17.50;99.90;;;;;;4875044;29;20064;-84
2021/06/06 06:02:05;;;;;;;10.82;5.38;;;17.60;99.90;;;;;;4885396;29;20061;-84
2021/06/06 06:04:33;;;;;;;9.40;4.50;;;17.60;99.90;;;;;;4886163;29;20056;-84
2021/06/06 06:07:01;;;;;;;14.05;5.15;;;17.70;99.90;;;;;;4896520;29;20052;-83
2021/06/06 06:09:29;;;;;;;12.70;5.93;;;17.70;99.90;;;;;;4893517;29;20056;-84
2021/06/06 06:11:57;;;;;;;9.65;4.75;;;17.70;99.90;;;;;;4894558;29;20052;-84
2021/06/06 06:14:25;;;;;;;15.93;5.63;;;17.80;99.90;;;;;;4894449;29;20501;-86
2021/06/06 06:16:53;;;;;;;13.90;5.90;;;17.80;99.90;;;;;;4895787;29;20059;-84
2021/06/06 06:19:20;;;;;;;14.02;5.75;;;17.80;99.90;;;;;;4899581;29;20052;-84
2021/06/06 06:21:48;;;;;;;9.48;4.55;;;17.80;99.90;;;;;;4899153;29;20060;-84
2021/06/06 06:24:16;;;;;;;16.80;6.10;;;17.90;99.90;;;;;;4877388;29;20056;-84
2021/06/06 06:26:44;;;;;;;13.77;6.43;;;17.90;99.90;;;;;;4894744;29;20045;-85
2021/06/06 06:29:23;;;;;;;16.20;5.90;;;17.90;99.90;;;;;;4894856;29;20056;-84
2021/06/06 06:31:53;;;;;;;18.50;6.07;;;17.90;99.90;;;;;;4894264;29;20544;-84
2021/06/06 06:34:29;;;;;;;11.98;5.43;;;17.90;99.90;;;;;;4880534;29;20055;-84
2021/06/06 06:36:59;;;;;;;11.57;5.32;;;17.80;99.90;;;;;;4877288;29;20066;-84
2021/06/06 06:39:27;;;;;;;8.77;4.75;;;17.80;99.90;;;;;;4895500;29;20057;-85
2021/06/06 06:41:54;;;;;;;12.25;4.55;;;17.80;99.90;;;;;;4895290;29;20056;-83
2021/06/06 06:44:22;;;;;;;10.48;5.45;;;17.80;99.90;;;;;;4877492;29;20408;-84
2021/06/06 06:46:51;;;;;;;11.40;5.00;;;17.80;99.90;;;;;;4877889;29;20060;-84
2021/06/06 06:49:20;;;;;;;12.23;5.10;;;17.80;99.90;;;;;;4882651;29;20408;-84
2021/06/06 06:51:48;;;;;;;10.23;4.75;;;17.90;99.90;;;;;;4893956;29;20053;-84
2021/06/06 06:54:16;;;;;;;14.88;6.03;;;17.90;99.90;;;;;;4884760;29;20557;-84
2021/06/06 06:56:44;;;;;;;14.23;4.60;;;17.90;99.90;;;;;;4894329;29;20082;-84
2021/06/06 06:59:11;;;;;;;14.38;5.18;;;18.00;99.90;;;;;;4893724;29;20068;-84
2021/06/06 07:01:39;;;;;;;13.13;5.00;;;18.00;99.90;;;;;;4894203;29;20052;-84
2021/06/06 07:04:07;;;;;;;12.90;5.07;;;18.00;99.90;;;;;;4896188;29;20123;-83
2021/06/06 07:06:37;;;;;;;11.30;5.95;;;18.10;99.90;;;;;;4897266;29;20509;-85
2021/06/06 07:09:05;;;;;;;12.20;5.28;;;18.20;99.90;;;;;;4862049;29;20513;-86
2021/06/06 07:11:33;;;;;;;12.52;5.22;;;18.30;99.90;;;;;;4907711;29;20063;-85
2021/06/06 07:14:01;;;;;;;20.08;4.93;;;18.50;99.90;;;;;;4874079;29;20060;-87
2021/06/06 07:16:29;;;;;;;13.55;5.97;;;18.60;99.90;;;;;;4855111;29;20071;-84
2021/06/06 07:18:57;;;;;;;11.25;4.85;;;18.80;99.90;;;;;;4895101;29;20075;-84
2021/06/06 07:21:24;;;;;;;15.70;6.60;;;18.90;99.90;;;;;;4883017;29;20064;-83
2021/06/06 07:23:52;;;;;;;12.05;5.13;;;19.00;99.90;;;;;;4893716;29;20073;-88
2021/06/06 07:26:26;;;;;;;11.00;4.25;;;19.20;99.90;;;;;;4877484;29;20052;-85
2021/06/06 07:28:59;;;;;;;13.07;5.40;;;19.30;99.90;;;;;;4893577;29;20049;-87
2021/06/06 07:31:29;;;;;;;11.30;4.82;;;19.40;99.90;;;;;;4893526;29;20057;-85
2021/06/06 07:34:12;;;;;;;15.00;5.97;;;19.50;99.90;;;;;;4876993;29;20045;-88
2021/06/06 07:36:42;;;;;;;10.07;4.55;;;19.60;99.90;;;;;;4876884;29;20044;-86
2021/06/06 07:39:10;;;;;;;14.88;4.63;;;19.70;99.90;;;;;;4870599;29;20060;-88
2021/06/06 07:41:38;;;;;;;14.38;5.28;;;19.80;99.90;;;;;;4877450;29;20052;-87
2021/06/06 07:44:07;;;;;;;15.27;7.70;;;20.10;99.90;;;;;;4879073;29;20064;-86
2021/06/06 07:46:35;;;;;;;10.73;4.05;;;19.90;99.90;;;;;;4880225;29;20409;-85
2021/06/06 07:49:04;;;;;;;18.67;6.10;;;20.00;99.90;;;;;;4896390;29;20056;-84
2021/06/06 07:51:32;;;;;;;15.35;5.75;;;20.00;99.90;;;;;;4896698;29;20056;-83
2021/06/06 07:54:00;;;;;;;14.18;4.35;;;20.10;99.90;;;;;;4893821;29;20064;-86
2021/06/06 07:56:28;;;;;;;13.35;6.05;;;20.10;99.90;;;;;;4892940;29;20084;-84
2021/06/06 07:58:56;;;;;;;14.13;4.82;;;20.20;99.90;;;;;;4892342;29;20057;-84
2021/06/06 08:01:24;;;;;;;13.55;4.03;;;20.20;99.90;;;;;;4891609;29;20044;-85
2021/06/06 08:03:52;;;;;;;13.65;4.60;;;20.30;99.90;;;;;;4896682;29;20071;-84
2021/06/06 08:06:21;;;;;;;16.17;4.50;;;20.30;99.90;;;;;;4898492;29;20087;-85
2021/06/06 08:08:52;;;;;;;;;;;20.40;99.90;;;;;;4891195;29;20052;-84
2021/06/06 08:11:20;;;;;;;11.50;4.30;;;20.40;99.90;;;;;;4892447;29;19933;-84
2021/06/06 08:13:50;;;;;;;12.35;5.00;;;20.50;99.90;;;;;;4883546;29;20041;-85
2021/06/06 08:16:18;;;;;;;10.30;5.03;;;20.60;99.90;;;;;;4888159;29;20070;-84
2021/06/06 08:18:47;;;;;;;11.88;3.88;;;20.70;99.90;;;;;;4886454;29;21803;-86
2021/06/06 08:21:32;;;;;;;10.43;4.32;;;20.70;99.90;;;;;;4894340;29;20063;-83
2021/06/06 08:24:00;;;;;;;11.02;4.15;;;20.70;99.90;;;;;;4889858;29;20056;-85
2021/06/06 08:26:28;;;;;;;11.30;4.57;;;20.80;99.90;;;;;;4889817;29;20072;-85
2021/06/06 08:28:57;;;;;;;7.53;4.07;;;20.90;99.90;;;;;;4873947;29;20052;-83
2021/06/06 08:31:29;;;;;;;11.93;4.18;;;21.00;99.90;;;;;;4874270;29;20401;-83
2021/06/06 08:33:58;;;;;;;8.40;3.97;;;21.00;99.90;;;;;;4892793;29;20071;-84
2021/06/06 08:36:35;;;;;;;11.40;3.80;;;21.10;99.90;;;;;;4892175;29;20083;-83
2021/06/06 08:39:10;;;;;;;9.68;4.03;;;21.20;99.90;;;;;;4867516;29;20057;-85
2021/06/06 08:41:53;;;;;;;11.13;3.65;;;21.30;99.90;;;;;;4868069;29;20061;-85
2021/06/06 08:44:27;;;;;;;9.23;3.35;;;21.50;99.90;;;;;;4873070;29;20148;-83
2021/06/06 08:47:03;;;;;;;9.88;2.70;;;21.50;99.90;;;;;;4888685;29;20052;-85
2021/06/06 08:49:50;;;;;;;8.07;2.97;;;21.60;99.90;;;;;;4887236;29;20064;-83
2021/06/06 08:52:46;;;;;;;4.88;2.40;;;21.80;99.90;;;;;;4889757;29;20056;-86
2021/06/06 08:55:44;;;;;;;9.27;2.95;;;21.80;99.90;;;;;;4882044;29;20071;-82
2021/06/06 08:58:19;;;;;;;12.32;3.65;;;21.90;99.90;;;;;;4891546;29;20068;-87
2021/06/06 09:00:53;;;;;;;7.75;2.70;;;21.90;99.90;;;;;;4891840;29;20060;-82
2021/06/06 09:03:27;;;;;;;6.65;2.78;;;21.90;99.90;;;;;;4874259;29;20067;-85
2021/06/06 09:06:05;;;;;;;5.25;3.03;;;22.00;99.90;;;;;;4888139;29;20053;-83
2021/06/06 09:08:37;;;;;;;7.35;2.80;;;22.00;99.90;;;;;;4874938;29;20044;-83
2021/06/06 09:11:12;;;;;;;7.05;2.75;;;22.00;99.90;;;;;;4870919;29;20057;-82
2021/06/06 09:13:40;;;;;;;9.75;3.13;;;22.10;99.90;;;;;;4857391;29;20386;-81
2021/06/06 09:16:25;;;;;;;6.55;2.47;;;22.30;99.90;;;;;;4870435;29;20049;-82
2021/06/06 09:19:00;;;;;;;9.45;3.05;;;22.40;99.90;;;;;;4891476;29;20052;-83
2021/06/06 09:21:29;;;;;;;10.45;2.80;;;22.50;99.90;;;;;;4899817;29;20044;-82
2021/06/06 09:24:08;;;;;;;9.63;2.92;;;22.70;99.90;;;;;;4890839;29;20052;-81
2021/06/06 09:26:36;;;;;;;5.70;2.60;;;22.80;99.90;;;;;;4854944;29;20049;-82
2021/06/06 09:29:17;;;;;;;5.70;2.95;;;22.90;99.90;;;;;;4875349;29;20378;-81
2021/06/06 09:31:45;;;;;;;;;;;23.10;99.70;;;;;;4888564;29;20052;-83
2021/06/06 09:34:22;;;;;;;6.25;2.67;;;23.20;98.50;;;;;;4893377;29;19930;-85
2021/06/06 09:37:15;;;;;;;10.77;3.42;;;23.30;99.10;;;;;;4878221;29;20086;-81
2021/06/06 09:39:51;;;;;;;4.68;2.83;;;23.50;98.20;;;;;;4894039;29;20060;-82
2021/06/06 09:42:26;;;;;;;5.40;2.63;;;23.60;98.40;;;;;;4881414;29;20497;-81
2021/06/06 09:45:11;;;;;;;8.07;2.40;;;23.70;97.80;;;;;;4894104;29;20061;-81
2021/06/06 09:47:39;;;;;;;7.38;2.55;;;23.80;96.50;;;;;;4893753;29;20413;-81
2021/06/06 09:50:18;;;;;;;6.70;2.13;;;23.80;96.60;;;;;;4895026;29;20060;-82
2021/06/06 09:52:48;;;;;;;7.80;2.00;;;23.90;96.00;;;;;;4892114;29;20056;-81
2021/06/06 09:55:31;;;;;;;5.68;2.20;;;23.90;96.20;;;;;;4870208;29;20418;-82
2021/06/06 09:58:10;;;;;;;7.20;2.42;;;23.90;95.20;;;;;;4891907;29;20052;-80
2021/06/06 10:00:44;;;;;;;8.35;2.30;;;23.90;94.80;;;;;;4896652;29;20093;-81
2021/06/06 10:03:35;;;;;;;10.85;2.85;;;23.80;94.90;;;;;;4874745;29;20049;-80
2021/06/06 10:06:18;;;;;;;;;;;23.80;94.50;;;;;;4877088;29;20462;-84
2021/06/06 10:09:02;;;;;;;5.70;2.28;;;23.70;94.60;;;;;;4901193;29;19931;-81
2021/06/06 10:11:41;;;;;;;6.78;2.67;;;23.80;94.30;;;;;;4877909;29;20056;-82
2021/06/06 10:14:11;;;;;;;7.55;2.15;;;23.70;94.10;;;;;;4895612;29;20056;-82
2021/06/06 10:16:42;;;;;;;3.67;1.73;;;23.70;94.40;;;;;;4895137;29;20053;-84
2021/06/06 10:19:51;;;;;;;6.00;2.40;;;23.60;94.20;;;;;;4892459;29;20051;-85
2021/06/06 10:22:30;;;;;;;9.65;2.78;;;23.70;93.70;;;;;;4887201;29;20057;-82
2021/06/06 10:25:09;;;;;;;5.65;2.10;;;23.70;93.50;;;;;;4893000;29;20057;-82
2021/06/06 10:27:42;;;;;;;7.03;2.70;;;23.80;93.60;;;;;;4888909;29;20061;-81
2021/06/06 10:30:13;;;;;;;8.27;3.20;;;23.80;93.70;;;;;;4874446;29;20053;-82
2021/06/06 10:32:44;;;;;;;;;;;23.90;93.80;;;;;;4876154;29;20344;-84
2021/06/06 10:35:29;;;;;;;5.03;2.47;;;23.90;94.00;;;;;;4871847;29;19928;-82
2021/06/06 10:37:59;;;;;;;9.90;2.50;;;24.00;94.10;;;;;;4859044;29;20159;-88
2021/06/06 10:40:45;;;;;;;16.00;2.70;;;24.10;93.80;;;;;;4852711;29;20533;-81
2021/06/06 10:43:28;;;;;;;9.43;2.22;;;24.20;93.50;;;;;;4873014;29;20076;-83
2021/06/06 10:46:00;;;;;;;4.28;2.40;;;24.30;92.90;;;;;;4873860;29;20064;-81
2021/06/06 10:48:34;;;;;;;8.93;3.08;;;24.30;93.20;;;;;;4872049;29;20405;-81
2021/06/06 10:51:09;;;;;;;7.88;2.63;;;24.30;93.10;;;;;;4878145;29;20060;-83
2021/06/06 10:53:37;;;;;;;7.85;3.05;;;24.50;93.10;;;;;;4870672;29;20054;-80
2021/06/06 10:56:12;;;;;;;10.32;3.40;;;24.60;93.10;;;;;;4874565;29;20053;-83
2021/06/06 10:58:56;;;;;;;5.75;2.85;;;24.60;92.70;;;;;;4873403;29;20397;-81
2021/06/06 11:01:49;;;;;;;7.10;2.40;;;24.80;92.60;;;;;;4862790;29;20065;-79
2021/06/06 11:04:23;;;;;;;5.43;2.40;;;24.90;92.60;;;;;;4872636;29;20052;-83
2021/06/06 11:07:05;;;;;;;6.28;1.73;;;25.10;92.50;;;;;;4845444;29;20057;-80
2021/06/06 11:09:36;;;;;;;4.25;1.95;;;25.20;92.10;;;;;;4873258;29;20576;-82
2021/06/06 11:12:11;;;;;;;6.70;2.28;;;25.40;91.90;;;;;;4873384;29;20061;-83
2021/06/06 11:14:49;;;;;;;6.45;2.28;;;25.40;91.50;;;;;;4872614;29;20060;-82
2021/06/06 11:17:34;;;;;;;7.43;2.10;;;25.40;91.10;;;;;;4873324;29;20461;-85
2021/06/06 11:20:32;;;;;;;6.90;2.63;;;25.30;90.90;;;;;;4854192;29;20553;-82
2021/06/06 11:23:12;;;;;;;3.47;2.55;;;25.40;90.30;;;;;;4871953;29;20057;-82
2021/06/06 11:25:44;;;;;;;4.93;2.63;;;25.50;90.50;;;;;;4850114;29;20889;-82
2021/06/06 11:28:35;;;;;;;8.43;3.63;;;25.50;90.50;;;;;;4854640;29;20311;-84
2021/06/06 11:31:18;;;;;;;8.48;2.75;;;25.50;90.40;;;;;;4870932;29;20057;-79
2021/06/06 11:34:21;;;;;;;10.38;2.85;;;25.50;90.50;;;;;;4843199;29;20067;-85
2021/06/06 11:37:07;;;;;;;10.77;3.60;;;25.50;90.60;;;;;;4888392;29;20061;-82
2021/06/06 11:39:42;;;;;;;3.92;2.88;;;25.40;90.70;;;;;;4890102;29;20602;-82
2021/06/06 11:42:19;;;;;;;11.60;3.22;;;25.20;90.90;;;;;;4870660;29;20049;-81
2021/06/06 11:44:51;;;;;;;10.50;2.67;;;25.10;91.00;;;;;;4889682;29;20056;-83
2021/06/06 11:47:32;;;;;;;6.82;2.40;;;24.90;91.10;;;;;;4891051;29;20155;-86
2021/06/06 11:50:29;;;;;;;9.35;3.00;;;24.80;91.00;;;;;;4889177;29;20513;-83
2021/06/06 11:53:12;;;;;;;5.43;2.45;;;24.60;91.00;;;;;;4889550;29;20149;-82
2021/06/06 11:55:43;;;;;;;8.05;2.80;;;24.50;91.30;;;;;;4875728;29;20045;-82
2021/06/06 11:58:15;;;;;;;9.43;2.97;;;24.60;91.20;;;;;;4889649;29;20064;-82
2021/06/06 12:00:48;;;;;;;6.63;2.25;;;24.60;91.30;;;;;;4893590;29;20048;-83
2021/06/06 12:03:35;;;;;;;6.57;1.92;;;24.60;91.10;;;;;;4886726;29;20059;-83
2021/06/06 12:06:30;;;;;;;7.90;2.63;;;24.60;91.10;;;;;;4871383;29;20060;-82
2021/06/06 12:09:00;;;;;;;7.25;2.30;;;24.50;91.00;;;;;;4868647;29;20049;-82
2021/06/06 12:11:35;;;;;;;8.50;2.72;;;24.40;91.20;;;;;;4876765;29;20134;-81
2021/06/06 12:14:17;;;;;;;10.90;3.05;;;24.40;91.20;;;;;;4892009;29;20060;-81
2021/06/06 12:16:53;;;;;;;5.90;2.60;;;24.40;91.20;;;;;;4892207;29;20056;-87
2021/06/06 12:19:43;;;;;;;10.45;2.65;;;24.40;91.20;;;;;;4893855;29;20056;-82
2021/06/06 12:22:23;;;;;;;7.85;2.75;;;24.40;90.90;;;;;;4881395;29;20041;-85
2021/06/06 12:24:59;;;;;;;5.05;2.90;;;24.50;90.90;;;;;;4882834;29;20060;-82
2021/06/06 12:27:30;;;;;;;6.63;2.28;;;24.60;90.80;;;;;;4866871;29;20081;-85
2021/06/06 12:30:03;;;;;;;7.97;3.15;;;24.70;90.60;;;;;;4889018;29;20052;-80
2021/06/06 12:32:34;;;;;;;6.80;2.60;;;24.70;90.50;;;;;;4879888;29;20063;-83
2021/06/06 12:35:05;;;;;;;;;;;24.70;90.50;;;;;;4872267;29;20053;-83
2021/06/06 12:37:43;;;;;;;7.60;2.70;;;24.70;90.30;;;;;;4885724;29;19931;-83
2021/06/06 12:40:13;;;;;;;11.75;2.72;;;24.70;90.50;;;;;;4888122;29;20056;-82
2021/06/06 12:42:41;;;;;;;6.82;2.58;;;24.80;90.40;;;;;;4886631;29;20064;-85
2021/06/06 12:45:14;;;;;;;5.28;2.20;;;25.00;90.40;;;;;;4873600;29;20048;-83
2021/06/06 12:48:14;;;;;;;8.57;2.92;;;25.00;90.20;;;;;;4891663;29;20055;-81
2021/06/06 12:50:44;;;;;;;5.35;2.30;;;25.20;90.10;;;;;;4869684;29;20063;-83
2021/06/06 12:53:15;;;;;;;6.35;2.78;;;25.20;90.30;;;;;;4858774;29;20626;-82
2021/06/06 12:55:45;;;;;;;7.07;2.67;;;25.30;90.20;;;;;;4889266;29;20067;-82
2021/06/06 12:58:15;;;;;;;8.63;2.30;;;25.30;90.10;;;;;;4870732;29;20052;-81
2021/06/06 13:00:47;;;;;;;;;;;25.30;90.10;;;;;;4887341;29;20063;-84
2021/06/06 13:03:32;;;;;;;5.05;2.08;;;25.30;89.00;;;;;;4878980;29;19927;-85
2021/06/06 13:06:19;;;;;;;3.85;1.42;;;25.40;88.80;;;;;;4883622;29;20049;-83
2021/06/06 13:08:47;;;;;;;6.07;2.10;;;25.50;88.10;;;;;;4884084;29;20342;-83
2021/06/06 13:11:29;;;;;;;9.45;1.88;;;25.60;88.00;;;;;;4891266;29;20063;-84
2021/06/06 13:14:06;;;;;;;3.20;1.88;;;25.60;87.50;;;;;;4884304;29;20079;-85
2021/06/06 13:16:39;;;;;;;5.50;2.08;;;25.60;87.30;;;;;;4878546;29;20052;-85
2021/06/06 13:19:16;;;;;;;6.50;2.10;;;25.50;87.80;;;;;;4882987;29;20060;-84
2021/06/06 13:21:56;;;;;;;6.60;1.90;;;25.40;87.60;;;;;;4871302;29;20575;-84